Time;durP1;ratioP1;P1;durP2;ratioP2;P2;SDS_P1;SDS_P2;PMS_P1;PMS_P2;Temp;Humidity;BMP_temperature;BMP_pressure;BME280_temperature;BME280_humidity;BME280_pressure;Samples;Min_cycle;Max_cycle;Signal;HPM_P1;HPM_P2
2023/01/13 00:01:49;;;;;;;;;;;;;;;;;;5002826;28;4541;-66
2023/01/13 00:04:14;;;;;;;;;;;;;;;;;;4995776;28;5128;-58
2023/01/13 00:06:40;;;;;;;;;;;;;;;;;;4994625;28;3561;-65
2023/01/13 00:09:05;;;;;;;;;;;;;;;;;;5002938;28;5332;-65
2023/01/13 00:11:30;;;;;;;;;;;;;;;;;;5000374;28;4744;-64
2023/01/13 00:13:55;;;;;;;;;;;;;;;;;;5005428;28;4727;-66
2023/01/13 00:16:21;;;;;;;;;;;;;;;;;;5001751;28;5319;-66
2023/01/13 00:18:46;;;;;;;;;;;;;;;;;;4998794;28;3426;-67
2023/01/13 00:21:14;;;;;;;;;;;;;;;;;;5004957;28;4829;-58
2023/01/13 00:23:40;;;;;;;;;;;;;;;;;;4998768;28;5006;-68
2023/01/13 00:26:06;;;;;;;;;;;;;;;;;;5003413;28;5065;-69
2023/01/13 00:28:31;;;;;;;;;;;;;;;;;;5007611;28;4962;-66
2023/01/13 00:31:03;;;;;;;;;;;;;;;;;;5005877;28;5139;-65
2023/01/13 00:33:28;;;;;;;;;;;;;;;;;;5005018;28;3539;-66
2023/01/13 00:36:00;;;;;;;;;;;;;;;;;;5008768;28;4857;-69
2023/01/13 00:38:25;;;;;;;;;;;;;;;;;;5008588;28;5080;-69
2023/01/13 00:41:00;;;;;;;;;;;;;;;;;;5009378;28;5104;-69
2023/01/13 00:43:25;;;;;;;;;;;;;;;;;;5001315;28;4992;-66
2023/01/13 00:45:51;;;;;;;;;;;;;;;;;;5003826;28;5080;-61
2023/01/13 00:48:20;;;;;;;;;;;;;;;;;;5007180;28;3656;-67
2023/01/13 00:50:45;;;;;;;;;;;;;;;;;;5005467;28;5376;-67
2023/01/13 00:53:11;;;;;;;;;;;;;;;;;;5009234;28;5148;-68
2023/01/13 00:55:36;;;;;;;;;;;;;;;;;;5004327;28;5112;-65
2023/01/13 00:58:04;;;;;;;;;;;;;;;;;;4989242;28;5060;-63
2023/01/13 01:00:30;;;;;;;;;;;;;;;;;;4987372;28;1174;-68
2023/01/13 01:02:55;;;;;;;;;;;;;;;;;;4987373;28;5016;-67
2023/01/13 01:05:20;;;;;;;;;;;;;;;;;;4987388;28;4676;-67
2023/01/13 01:07:46;;;;;;;;;;;;;;;;;;4997339;28;4980;-67
2023/01/13 01:10:11;;;;;;;;;;;;;;;;;;5001626;28;5153;-63
2023/01/13 01:12:36;;;;;;;;;;;;;;;;;;4987808;28;3432;-62
2023/01/13 01:15:02;;;;;;;;;;;;;;;;;;4984686;28;5106;-61
2023/01/13 01:17:27;;;;;;;;;;;;;;;;;;4988559;28;4883;-66
2023/01/13 01:19:52;;;;;;;;;;;;;;;;;;4986492;28;5140;-58
2023/01/13 01:22:17;;;;;;;;;;;;;;;;;;4979485;28;4628;-69
2023/01/13 01:24:43;;;;;;;;;;;;;;;;;;4984300;28;3505;-69
2023/01/13 01:27:08;;;;;;;;;;;;;;;;;;4983184;28;4444;-67
2023/01/13 01:29:33;;;;;;;;;;;;;;;;;;4985865;28;5073;-68
2023/01/13 01:31:58;;;;;;;;;;;;;;;;;;4981574;28;5181;-68
2023/01/13 01:34:24;;;;;;;;;;;;;;;;;;4985837;28;5046;-67
2023/01/13 01:36:49;;;;;;;;;;;;;;;;;;4984827;28;3606;-66
2023/01/13 01:39:14;;;;;;;;;;;;;;;;;;4988550;28;4603;-68
2023/01/13 01:43:57;;;;;;;;;;;;;;;;;;4987084;28;4411;-65
2023/01/13 01:44:40;;;;;;;;;;;;;;;;;;4983605;28;5027;-67
2023/01/13 01:47:05;;;;;;;;;;;;;;;;;;4985206;28;4930;-65
2023/01/13 01:49:31;;;;;;;;;;;;;;;;;;4996780;28;5101;-68
2023/01/13 01:51:59;;;;;;;;;;;;;;;;;;4983607;28;5162;-67
2023/01/13 01:54:26;;;;;;;;;;;;;;;;;;5006019;28;1153;-67
2023/01/13 01:56:51;;;;;;;;;;;;;;;;;;4990363;28;4465;-63
2023/01/13 01:59:16;;;;;;;;;;;;;;;;;;4980684;28;5086;-65
2023/01/13 02:01:42;;;;;;;;;;;;;;;;;;4984567;28;5061;-60
2023/01/13 02:04:11;;;;;;;;;;;;;;;;;;5003099;28;5172;-67
2023/01/13 02:06:36;;;;;;;;;;;;;;;;;;5018592;28;3109;-65
2023/01/13 02:09:02;;;;;;;;;;;;;;;;;;5003077;28;4946;-65
2023/01/13 02:14:11;;;;;;;;;;;;;;;;;;4987912;28;5090;-67
2023/01/13 02:16:36;;;;;;;;;;;;;;;;;;4985421;28;5121;-64
2023/01/13 02:19:20;;;;;;;;;;;;;;;;;;4986394;28;5045;-63
2023/01/13 02:21:52;;;;;;;;;;;;;;;;;;4984982;28;3472;-67
2023/01/13 02:27:13;;;;;;;;;;;;;;;;;;5005042;28;4726;-66
2023/01/13 02:32:45;;;;;;;;;;;;;;;;;;5007633;28;5133;-68
2023/01/13 02:35:19;;;;;;;;;;;;;;;;;;5008441;28;4950;-68
2023/01/13 02:37:45;;;;;;;;;;;;;;;;;;4999420;28;5120;-67
2023/01/13 02:40:13;;;;;;;;;;;;;;;;;;4989360;28;4991;-68
2023/01/13 02:45:36;;;;;;;;;;;;;;;;;;5023497;28;4713;-59
2023/01/13 02:48:02;;;;;;;;;;;;;;;;;;4987391;28;4453;-63
2023/01/13 02:50:28;;;;;;;;;;;;;;;;;;4981017;28;5223;-64
2023/01/13 02:52:54;;;;;;;;;;;;;;;;;;4995340;28;4736;-61
2023/01/13 02:55:31;;;;;;;;;;;;;;;;;;4998183;28;5184;-66
2023/01/13 02:57:57;;;;;;;;;;;;;;;;;;4990028;28;4611;-66
2023/01/13 03:00:22;;;;;;;;;;;;;;;;;;4987904;28;3586;-66
2023/01/13 03:02:48;;;;;;;;;;;;;;;;;;4985912;28;5600;-61
2023/01/13 03:05:13;;;;;;;;;;;;;;;;;;4982914;28;5133;-62
2023/01/13 03:07:44;;;;;;;;;;;;;;;;;;4991257;28;4524;-61
2023/01/13 03:10:25;;;;;;;;;;;;;;;;;;4990371;28;4706;-62
2023/01/13 03:13:08;;;;;;;;;;;;;;;;;;5006161;28;3650;-62
2023/01/13 03:15:42;;;;;;;;;;;;;;;;;;5005187;28;5315;-68
2023/01/13 03:18:26;;;;;;;;;;;;;;;;;;5022356;28;5010;-67
2023/01/13 03:20:57;;;;;;;;;;;;;;;;;;5006824;28;5025;-66
2023/01/13 03:23:38;;;;;;;;;;;;;;;;;;4999216;28;4652;-69
2023/01/13 03:26:03;;;;;;;;;;;;;;;;;;5003810;28;4735;-66
2023/01/13 03:28:30;;;;;;;;;;;;;;;;;;5009619;28;5224;-67
2023/01/13 03:31:00;;;;;;;;;;;;;;;;;;5007625;28;5081;-67
2023/01/13 03:33:27;;;;;;;;;;;;;;;;;;5018624;28;3232;-63
2023/01/13 03:35:53;;;;;;;;;;;;;;;;;;4998882;28;6070;-69
2023/01/13 03:38:38;;;;;;;;;;;;;;;;;;5008737;28;5077;-68
2023/01/13 03:41:08;;;;;;;;;;;;;;;;;;4993604;28;4493;-67
2023/01/13 03:46:23;;;;;;;;;;;;;;;;;;4981683;28;5123;-69
2023/01/13 03:48:49;;;;;;;;;;;;;;;;;;4979003;28;3495;-63
2023/01/13 03:51:15;;;;;;;;;;;;;;;;;;4982538;28;4703;-69
2023/01/13 03:53:48;;;;;;;;;;;;;;;;;;4990169;28;5007;-63
2023/01/13 03:56:27;;;;;;;;;;;;;;;;;;4982420;28;5076;-68
2023/01/13 03:58:52;;;;;;;;;;;;;;;;;;4978357;28;5160;-68
2023/01/13 04:01:20;;;;;;;;;;;;;;;;;;4987396;28;5056;-69
2023/01/13 04:03:45;;;;;;;;;;;;;;;;;;4985462;28;3680;-66
2023/01/13 04:06:17;;;;;;;;;;;;;;;;;;4984281;28;5081;-67
2023/01/13 04:08:50;;;;;;;;;;;;;;;;;;5017829;28;4490;-69
2023/01/13 04:11:21;;;;;;;;;;;;;;;;;;4996923;28;5629;-65
2023/01/13 04:13:46;;;;;;;;;;;;;;;;;;4983512;28;4685;-64
2023/01/13 04:16:12;;;;;;;;;;;;;;;;;;4986461;28;5149;-65
2023/01/13 04:18:37;;;;;;;;;;;;;;;;;;4985636;28;1142;-68
2023/01/13 04:21:03;;;;;;;;;;;;;;;;;;4984494;28;4481;-68
2023/01/13 04:23:28;;;;;;;;;;;;;;;;;;4983984;28;4600;-62
2023/01/13 04:25:53;;;;;;;;;;;;;;;;;;4986040;28;4994;-70
2023/01/13 04:28:18;;;;;;;;;;;;;;;;;;4981788;28;5073;-68
2023/01/13 04:30:44;;;;;;;;;;;;;;;;;;4977829;28;4265;-59
2023/01/13 04:33:09;;;;;;;;;;;;;;;;;;4978489;28;5124;-70
2023/01/13 04:35:34;;;;;;;;;;;;;;;;;;4985732;28;4583;-66
2023/01/13 04:38:04;;;;;;;;;;;;;;;;;;4985376;28;4905;-60
2023/01/13 04:40:29;;;;;;;;;;;;;;;;;;4977608;28;5081;-67
2023/01/13 04:42:54;;;;;;;;;;;;;;;;;;4986557;28;5075;-66
2023/01/13 04:45:19;;;;;;;;;;;;;;;;;;4983844;28;3402;-66
2023/01/13 04:47:45;;;;;;;;;;;;;;;;;;4986451;28;5426;-65
2023/01/13 04:50:10;;;;;;;;;;;;;;;;;;4985152;28;5143;-64
2023/01/13 04:52:36;;;;;;;;;;;;;;;;;;4985491;28;4552;-62
2023/01/13 04:55:01;;;;;;;;;;;;;;;;;;4986273;28;4783;-63
2023/01/13 04:57:27;;;;;;;;;;;;;;;;;;4983357;28;3495;-62
2023/01/13 04:59:52;;;;;;;;;;;;;;;;;;4983674;28;5030;-66
2023/01/13 05:02:20;;;;;;;;;;;;;;;;;;4998566;28;4765;-64
2023/01/13 05:04:46;;;;;;;;;;;;;;;;;;5006575;28;5398;-66
2023/01/13 05:07:11;;;;;;;;;;;;;;;;;;5007210;28;5068;-66
2023/01/13 05:09:37;;;;;;;;;;;;;;;;;;5002105;28;3748;-62
2023/01/13 05:17:31;;;;;;;;;;;;;;;;;;4997258;28;5144;-65
2023/01/13 05:19:56;;;;;;;;;;;;;;;;;;4996644;28;5582;-66
2023/01/13 05:25:23;;;;;;;;;;;;;;;;;;4982785;28;5520;-65
2023/01/13 05:27:48;;;;;;;;;;;;;;;;;;4985318;28;4096;-63
2023/01/13 05:30:14;;;;;;;;;;;;;;;;;;4984625;28;4912;-68
2023/01/13 05:32:39;;;;;;;;;;;;;;;;;;5000601;28;4677;-67
2023/01/13 05:35:04;;;;;;;;;;;;;;;;;;4990714;28;5155;-67
2023/01/13 05:37:29;;;;;;;;;;;;;;;;;;4988257;28;5214;-67
2023/01/13 05:45:23;;;;;;;;;;;;;;;;;;5005004;28;4557;-64
2023/01/13 05:47:48;;;;;;;;;;;;;;;;;;5003545;28;5157;-63
2023/01/13 05:50:14;;;;;;;;;;;;;;;;;;5014709;28;5108;-65
2023/01/13 05:52:39;;;;;;;;;;;;;;;;;;5006044;28;5080;-63
2023/01/13 05:55:04;;;;;;;;;;;;;;;;;;5005733;28;5145;-61
2023/01/13 05:57:30;;;;;;;;;;;;;;;;;;5007950;28;1245;-65
2023/01/13 05:59:55;;;;;;;;;;;;;;;;;;5007791;28;4642;-64
2023/01/13 06:02:20;;;;;;;;;;;;;;;;;;5003749;28;5228;-65
2023/01/13 06:04:45;;;;;;;;;;;;;;;;;;5007784;28;5187;-65
2023/01/13 06:07:11;;;;;;;;;;;;;;;;;;5004296;28;5189;-65
2023/01/13 06:09:36;;;;;;;;;;;;;;;;;;5001984;28;3850;-63
2023/01/13 06:12:02;;;;;;;;;;;;;;;;;;4988098;28;5223;-65
2023/01/13 06:14:38;;;;;;;;;;;;;;;;;;4989064;28;4941;-66
2023/01/13 06:17:05;;;;;;;;;;;;;;;;;;4988746;28;4729;-66
2023/01/13 06:19:30;;;;;;;;;;;;;;;;;;4984542;28;5176;-68
2023/01/13 06:21:56;;;;;;;;;;;;;;;;;;4987036;28;5133;-69
2023/01/13 06:24:21;;;;;;;;;;;;;;;;;;5002873;28;3271;-67
2023/01/13 06:26:46;;;;;;;;;;;;;;;;;;4983240;28;4586;-68
2023/01/13 06:29:13;;;;;;;;;;;;;;;;;;4985266;28;5119;-68
2023/01/13 06:31:39;;;;;;;;;;;;;;;;;;4985504;28;4811;-60
2023/01/13 06:34:06;;;;;;;;;;;;;;;;;;4986215;28;5532;-66
2023/01/13 06:36:34;;;;;;;;;;;;;;;;;;4989504;28;3277;-66
2023/01/13 06:39:00;;;;;;;;;;;;;;;;;;4988363;28;5133;-67
2023/01/13 06:44:09;;;;;;;;;;;;;;;;;;4983202;28;5188;-64
2023/01/13 06:46:35;;;;;;;;;;;;;;;;;;4982391;28;4549;-64
2023/01/13 06:49:00;;;;;;;;;;;;;;;;;;4988086;28;4467;-67
2023/01/13 06:51:25;;;;;;;;;;;;;;;;;;4984821;28;1910;-63
2023/01/13 06:53:50;;;;;;;;;;;;;;;;;;4987868;28;4466;-68
2023/01/13 06:56:16;;;;;;;;;;;;;;;;;;4989082;28;5068;-67
2023/01/13 06:58:41;;;;;;;;;;;;;;;;;;4989383;28;5099;-67
2023/01/13 07:01:06;;;;;;;;;;;;;;;;;;4982916;28;4676;-66
2023/01/13 07:03:31;;;;;;;;;;;;;;;;;;4987077;28;1226;-66
2023/01/13 07:05:57;;;;;;;;;;;;;;;;;;4986662;28;4477;-64
2023/01/13 07:08:22;;;;;;;;;;;;;;;;;;4986420;28;4625;-68
2023/01/13 07:10:48;;;;;;;;;;;;;;;;;;4988767;28;4969;-64
2023/01/13 07:16:01;;;;;;;;;;;;;;;;;;4976745;28;5092;-64
2023/01/13 07:18:27;;;;;;;;;;;;;;;;;;4984335;28;1097;-69
2023/01/13 07:20:53;;;;;;;;;;;;;;;;;;4982780;28;5531;-67
2023/01/13 07:23:18;;;;;;;;;;;;;;;;;;4982858;28;5202;-67
2023/01/13 07:25:43;;;;;;;;;;;;;;;;;;4981388;28;4681;-69
2023/01/13 07:28:09;;;;;;;;;;;;;;;;;;4989958;28;5128;-70
2023/01/13 07:30:34;;;;;;;;;;;;;;;;;;4984058;28;4340;-68
2023/01/13 07:32:59;;;;;;;;;;;;;;;;;;4981561;28;5107;-68
2023/01/13 07:35:24;;;;;;;;;;;;;;;;;;4985633;28;5165;-67
2023/01/13 07:37:50;;;;;;;;;;;;;;;;;;4986221;28;5207;-61
2023/01/13 07:40:15;;;;;;;;;;;;;;;;;;4980160;28;5002;-67
2023/01/13 07:45:24;;;;;;;;;;;;;;;;;;4982320;28;4576;-63
2023/01/13 07:47:51;;;;;;;;;;;;;;;;;;4980976;28;4697;-68
2023/01/13 07:50:16;;;;;;;;;;;;;;;;;;4989064;28;5045;-65
2023/01/13 07:52:41;;;;;;;;;;;;;;;;;;4985280;28;5130;-62
2023/01/13 07:55:07;;;;;;;;;;;;;;;;;;4987114;28;5063;-65
2023/01/13 07:57:32;;;;;;;;;;;;;;;;;;4981837;28;3475;-66
2023/01/13 07:59:57;;;;;;;;;;;;;;;;;;4988293;28;4988;-66
2023/01/13 08:02:23;;;;;;;;;;;;;;;;;;4987428;28;5483;-67
2023/01/13 08:04:48;;;;;;;;;;;;;;;;;;4983448;28;5024;-62
2023/01/13 08:07:13;;;;;;;;;;;;;;;;;;4986317;28;5181;-67
2023/01/13 08:09:38;;;;;;;;;;;;;;;;;;4986556;28;3382;-68
2023/01/13 08:14:49;;;;;;;;;;;;;;;;;;4980289;28;4643;-65
2023/01/13 08:17:14;;;;;;;;;;;;;;;;;;4983217;28;5471;-63
2023/01/13 08:19:40;;;;;;;;;;;;;;;;;;4988277;28;4506;-64
2023/01/13 08:22:05;;;;;;;;;;;;;;;;;;4985422;28;4907;-64
2023/01/13 08:24:30;;;;;;;;;;;;;;;;;;4984904;28;3343;-63
2023/01/13 08:26:55;;;;;;;;;;;;;;;;;;4983784;28;5019;-64
2023/01/13 08:29:21;;;;;;;;;;;;;;;;;;4984447;28;4538;-65
2023/01/13 08:31:46;;;;;;;;;;;;;;;;;;4986776;28;5085;-64
2023/01/13 08:34:11;;;;;;;;;;;;;;;;;;4988128;28;5062;-63
2023/01/13 08:36:36;;;;;;;;;;;;;;;;;;4986005;28;1251;-64
2023/01/13 08:39:02;;;;;;;;;;;;;;;;;;4982499;28;4454;-65
2023/01/13 08:44:11;;;;;;;;;;;;;;;;;;4979500;28;4619;-65
2023/01/13 08:46:36;;;;;;;;;;;;;;;;;;4976018;28;5183;-66
2023/01/13 08:49:01;;;;;;;;;;;;;;;;;;4986324;28;5080;-64
2023/01/13 08:51:26;;;;;;;;;;;;;;;;;;4988712;28;1910;-64
2023/01/13 08:53:52;;;;;;;;;;;;;;;;;;4983729;28;4902;-65
2023/01/13 08:56:17;;;;;;;;;;;;;;;;;;4981072;28;5074;-66
2023/01/13 08:58:42;;;;;;;;;;;;;;;;;;4991059;28;5671;-65
2023/01/13 09:01:08;;;;;;;;;;;;;;;;;;5002066;28;5259;-66
2023/01/13 09:03:34;;;;;;;;;;;;;;;;;;5002410;28;3632;-66
2023/01/13 09:05:59;;;;;;;;;;;;;;;;;;5007249;28;5154;-65
2023/01/13 09:08:24;;;;;;;;;;;;;;;;;;5004026;28;5037;-64
2023/01/13 09:10:49;;;;;;;;;;;;;;;;;;5006748;28;4664;-67
2023/01/13 09:13:15;;;;;;;;;;;;;;;;;;4996710;28;5106;-60
2023/01/13 09:15:42;;;;;;;;;;;;;;;;;;4988519;28;1470;-66
2023/01/13 09:18:08;;;;;;;;;;;;;;;;;;5003724;28;4760;-65
2023/01/13 09:20:33;;;;;;;;;;;;;;;;;;5020077;28;5242;-65
2023/01/13 09:22:58;;;;;;;;;;;;;;;;;;5003001;28;5007;-65
2023/01/13 09:25:23;;;;;;;;;;;;;;;;;;4999647;28;5141;-65
2023/01/13 09:27:49;;;;;;;;;;;;;;;;;;5003115;28;3216;-61
2023/01/13 09:30:14;;;;;;;;;;;;;;;;;;5007822;28;5125;-65
2023/01/13 09:32:39;;;;;;;;;;;;;;;;;;5006852;28;5102;-65
2023/01/13 09:35:05;;;;;;;;;;;;;;;;;;5004950;28;4577;-66
2023/01/13 09:37:33;;;;;;;;;;;;;;;;;;5006980;28;5290;-66
2023/01/13 09:39:58;;;;;;;;;;;;;;;;;;5009468;28;5170;-59
2023/01/13 09:45:30;;;;;;;;;;;;;;;;;;5011432;28;4861;-64
2023/01/13 09:47:58;;;;;;;;;;;;;;;;;;5009309;28;5265;-65
2023/01/13 09:50:23;;;;;;;;;;;;;;;;;;5006358;28;4500;-66
2023/01/13 09:52:49;;;;;;;;;;;;;;;;;;5005813;28;4658;-66
2023/01/13 09:55:15;;;;;;;;;;;;;;;;;;5009154;28;4494;-66
2023/01/13 09:57:40;;;;;;;;;;;;;;;;;;5008012;28;3566;-66
2023/01/13 10:00:26;;;;;;;;;;;;;;;;;;5003666;28;4936;-66
2023/01/13 10:03:10;;;;;;;;;;;;;;;;;;5006241;28;4610;-64
2023/01/13 10:05:36;;;;;;;;;;;;;;;;;;5022617;28;5212;-67
2023/01/13 10:08:04;;;;;;;;;;;;;;;;;;5011429;28;4734;-65
2023/01/13 10:10:38;;;;;;;;;;;;;;;;;;5007917;28;5081;-66
2023/01/13 10:13:15;;;;;;;;;;;;;;;;;;5004338;28;5171;-63
2023/01/13 10:16:02;;;;;;;;;;;;;;;;;;5007417;28;3384;-65
2023/01/13 10:18:32;;;;;;;;;;;;;;;;;;5010416;28;5002;-64
2023/01/13 10:21:16;;;;;;;;;;;;;;;;;;5010692;28;5135;-65
2023/01/13 10:23:56;;;;;;;;;;;;;;;;;;5002128;28;4896;-65
2023/01/13 10:26:29;;;;;;;;;;;;;;;;;;5004383;28;4989;-61
2023/01/13 10:28:55;;;;;;;;;;;;;;;;;;5008196;28;5079;-61
2023/01/13 10:31:20;;;;;;;;;;;;;;;;;;5007963;28;5039;-64
2023/01/13 10:33:46;;;;;;;;;;;;;;;;;;5007636;28;3255;-65
2023/01/13 10:36:12;;;;;;;;;;;;;;;;;;5000579;28;4583;-68
2023/01/13 10:38:38;;;;;;;;;;;;;;;;;;5003859;28;4970;-67
2023/01/13 10:41:16;;;;;;;;;;;;;;;;;;5004157;28;4972;-68
2023/01/13 10:43:57;;;;;;;;;;;;;;;;;;5007429;28;5119;-68
2023/01/13 10:46:22;;;;;;;;;;;;;;;;;;5010246;28;4927;-67
2023/01/13 10:48:57;;;;;;;;;;;;;;;;;;5004495;28;3393;-65
2023/01/13 10:51:38;;;;;;;;;;;;;;;;;;5000992;28;5272;-69
2023/01/13 10:54:10;;;;;;;;;;;;;;;;;;5016346;28;4484;-70
2023/01/13 10:56:35;;;;;;;;;;;;;;;;;;5008425;28;5049;-69
2023/01/13 10:59:36;;;;;;;;;;;;;;;;;;5005883;28;4936;-70
2023/01/13 11:02:01;;;;;;;;;;;;;;;;;;4978355;28;5147;-69
2023/01/13 11:04:31;;;;;;;;;;;;;;;;;;4997315;28;5057;-69
2023/01/13 11:06:56;;;;;;;;;;;;;;;;;;5006952;28;5107;-65
2023/01/13 11:09:21;;;;;;;;;;;;;;;;;;5012402;28;3032;-68
2023/01/13 11:11:49;;;;;;;;;;;;;;;;;;5007257;28;4525;-68
2023/01/13 11:14:32;;;;;;;;;;;;;;;;;;5010180;28;5588;-70
2023/01/13 11:16:59;;;;;;;;;;;;;;;;;;5007235;28;4822;-68
2023/01/13 11:19:25;;;;;;;;;;;;;;;;;;5007577;28;5258;-68
2023/01/13 11:21:55;;;;;;;;;;;;;;;;;;5014359;28;3405;-67
2023/01/13 11:24:39;;;;;;;;;;;;;;;;;;5004994;28;4489;-68
2023/01/13 11:27:06;;;;;;;;;;;;;;;;;;5005076;28;4484;-67
2023/01/13 11:29:38;;;;;;;;;;;;;;;;;;5004123;28;5110;-67
2023/01/13 11:32:10;;;;;;;;;;;;;;;;;;4991106;28;4544;-67
2023/01/13 11:34:36;;;;;;;;;;;;;;;;;;4988345;28;5159;-69
2023/01/13 11:37:02;;;;;;;;;;;;;;;;;;4990127;28;5180;-67
2023/01/13 11:39:29;;;;;;;;;;;;;;;;;;5008395;28;1218;-66
2023/01/13 11:42:23;;;;;;;;;;;;;;;;;;5006741;28;5110;-65
2023/01/13 11:44:51;;;;;;;;;;;;;;;;;;5009408;28;4565;-66
2023/01/13 11:47:18;;;;;;;;;;;;;;;;;;5001348;28;5109;-67
2023/01/13 11:49:47;;;;;;;;;;;;;;;;;;5007875;28;5053;-67
2023/01/13 11:52:21;;;;;;;;;;;;;;;;;;4999581;28;5277;-67
2023/01/13 11:55:02;;;;;;;;;;;;;;;;;;5009961;28;1525;-67
2023/01/13 11:57:31;;;;;;;;;;;;;;;;;;5002602;28;4981;-67
2023/01/13 12:00:15;;;;;;;;;;;;;;;;;;5003040;28;4640;-67
2023/01/13 12:02:44;;;;;;;;;;;;;;;;;;5006148;28;5114;-65
2023/01/13 12:05:22;;;;;;;;;;;;;;;;;;5005274;28;4619;-67
2023/01/13 12:08:08;;;;;;;;;;;;;;;;;;5004352;28;5601;-67
2023/01/13 12:10:52;;;;;;;;;;;;;;;;;;5007727;28;5073;-66
2023/01/13 12:13:27;;;;;;;;;;;;;;;;;;5002659;28;5215;-66
2023/01/13 12:16:11;;;;;;;;;;;;;;;;;;5009698;28;5114;-66
2023/01/13 12:18:41;;;;;;;;;;;;;;;;;;5012705;28;3572;-65
2023/01/13 12:21:11;;;;;;;;;;;;;;;;;;5004347;28;5112;-66
2023/01/13 12:23:44;;;;;;;;;;;;;;;;;;5005455;28;4605;-65
2023/01/13 12:26:10;;;;;;;;;;;;;;;;;;5003927;28;4960;-67
2023/01/13 12:28:50;;;;;;;;;;;;;;;;;;4999870;28;5135;-66
2023/01/13 12:31:17;;;;;;;;;;;;;;;;;;5002650;28;5129;-65
2023/01/13 12:33:49;;;;;;;;;;;;;;;;;;5000832;28;3129;-64
2023/01/13 12:36:14;;;;;;;;;;;;;;;;;;5003039;28;4515;-66
2023/01/13 12:38:45;;;;;;;;;;;;;;;;;;5006911;28;5082;-66
2023/01/13 12:41:10;;;;;;;;;;;;;;;;;;5006209;28;4671;-66
2023/01/13 12:46:20;;;;;;;;;;;;;;;;;;5006504;28;4600;-66
2023/01/13 12:48:55;;;;;;;;;;;;;;;;;;4999108;28;3380;-66
2023/01/13 12:51:23;;;;;;;;;;;;;;;;;;5001182;28;5019;-66
2023/01/13 12:53:49;;;;;;;;;;;;;;;;;;5007335;28;5092;-65
2023/01/13 12:56:20;;;;;;;;;;;;;;;;;;5004523;28;5062;-64
2023/01/13 12:58:45;;;;;;;;;;;;;;;;;;5004861;28;5111;-66
2023/01/13 13:01:11;;;;;;;;;;;;;;;;;;5007741;28;5127;-67
2023/01/13 13:03:37;;;;;;;;;;;;;;;;;;5002171;28;3311;-64
2023/01/13 13:06:08;;;;;;;;;;;;;;;;;;5000246;28;5187;-65
2023/01/13 13:08:49;;;;;;;;;;;;;;;;;;5004370;28;5244;-66
2023/01/13 13:13:58;;;;;;;;;;;;;;;;;;4997859;28;5311;-62
2023/01/13 13:16:24;;;;;;;;;;;;;;;;;;4988329;28;5131;-65
2023/01/13 13:18:49;;;;;;;;;;;;;;;;;;4995455;28;3428;-64
2023/01/13 13:21:14;;;;;;;;;;;;;;;;;;5006915;28;4673;-64
2023/01/13 13:23:48;;;;;;;;;;;;;;;;;;5001439;28;4462;-65
2023/01/13 13:26:14;;;;;;;;;;;;;;;;;;5001841;28;4905;-60
2023/01/13 13:28:41;;;;;;;;;;;;;;;;;;5019578;28;5252;-63
2023/01/13 13:31:26;;;;;;;;;;;;;;;;;;5006851;28;4556;-62
2023/01/13 13:33:52;;;;;;;;;;;;;;;;;;4996596;28;5021;-60
2023/01/13 13:36:23;;;;;;;;;;;;;;;;;;5007761;28;3759;-60
2023/01/13 13:47:02;;;;;;;;;;;;;;;;;;5007296;28;4704;-59
2023/01/13 13:49:55;;;;;;;;;;;;;;;;;;5016416;28;5218;-59
2023/01/13 13:52:21;;;;;;;;;;;;;;;;;;4998985;28;5190;-60
2023/01/13 13:54:49;;;;;;;;;;;;;;;;;;4998912;28;1191;-60
2023/01/13 13:57:18;;;;;;;;;;;;;;;;;;4988137;28;4448;-62
2023/01/13 13:59:43;;;;;;;;;;;;;;;;;;4981177;28;5039;-61
2023/01/13 14:02:17;;;;;;;;;;;;;;;;;;4987928;28;4776;-61
2023/01/13 14:04:42;;;;;;;;;;;;;;;;;;4983474;28;5187;-60
2023/01/13 14:07:19;;;;;;;;;;;;;;;;;;4998406;28;4591;-62
2023/01/13 14:09:45;;;;;;;;;;;;;;;;;;4980744;28;3369;-63
2023/01/13 14:12:17;;;;;;;;;;;;;;;;;;5005542;28;5573;-64
2023/01/13 14:14:43;;;;;;;;;;;;;;;;;;5007295;28;4507;-64
2023/01/13 14:17:18;;;;;;;;;;;;;;;;;;5004082;28;4552;-68
2023/01/13 14:19:46;;;;;;;;;;;;;;;;;;5001663;28;5034;-66
2023/01/13 14:22:15;;;;;;;;;;;;;;;;;;5006415;28;4971;-66
2023/01/13 14:24:43;;;;;;;;;;;;;;;;;;5004043;28;1145;-60
2023/01/13 14:27:15;;;;;;;;;;;;;;;;;;5004300;28;5085;-60
2023/01/13 14:29:41;;;;;;;;;;;;;;;;;;5004934;28;5147;-61
2023/01/13 14:32:06;;;;;;;;;;;;;;;;;;5010775;28;5483;-63
2023/01/13 14:34:31;;;;;;;;;;;;;;;;;;5001330;28;5261;-61
2023/01/13 14:36:57;;;;;;;;;;;;;;;;;;5006358;28;5131;-61
2023/01/13 14:39:22;;;;;;;;;;;;;;;;;;5003028;28;3377;-62
2023/01/13 14:41:49;;;;;;;;;;;;;;;;;;5011325;28;4573;-62
2023/01/13 14:44:25;;;;;;;;;;;;;;;;;;5006359;28;4454;-60
2023/01/13 14:46:53;;;;;;;;;;;;;;;;;;5015529;28;5238;-63
2023/01/13 14:49:28;;;;;;;;;;;;;;;;;;5003709;28;5050;-57
2023/01/13 14:52:02;;;;;;;;;;;;;;;;;;5002583;28;5079;-63
2023/01/13 14:54:56;;;;;;;;;;;;;;;;;;5003232;28;3512;-63
2023/01/13 14:57:26;;;;;;;;;;;;;;;;;;4996261;28;4963;-61
2023/01/13 14:59:56;;;;;;;;;;;;;;;;;;5007061;28;4809;-62
2023/01/13 15:02:24;;;;;;;;;;;;;;;;;;5005129;28;5138;-62
2023/01/13 15:04:52;;;;;;;;;;;;;;;;;;4999028;28;5160;-61
2023/01/13 15:07:23;;;;;;;;;;;;;;;;;;5005350;28;5119;-64
2023/01/13 15:09:51;;;;;;;;;;;;;;;;;;4999725;28;1242;-64
2023/01/13 15:12:21;;;;;;;;;;;;;;;;;;4980045;28;5156;-64
2023/01/13 15:14:47;;;;;;;;;;;;;;;;;;4987252;28;5169;-65
2023/01/13 15:17:14;;;;;;;;;;;;;;;;;;4990418;28;5237;-66
2023/01/13 15:19:39;;;;;;;;;;;;;;;;;;4986782;28;5237;-66
2023/01/13 15:22:05;;;;;;;;;;;;;;;;;;5003422;28;4654;-63
2023/01/13 15:24:30;;;;;;;;;;;;;;;;;;5006383;28;1276;-64
2023/01/13 15:26:55;;;;;;;;;;;;;;;;;;5001568;28;5086;-63
2023/01/13 15:29:20;;;;;;;;;;;;;;;;;;5007405;28;5074;-66
2023/01/13 15:31:46;;;;;;;;;;;;;;;;;;5006056;28;4582;-66
2023/01/13 15:34:11;;;;;;;;;;;;;;;;;;5003038;28;5022;-60
2023/01/13 15:36:36;;;;;;;;;;;;;;;;;;5005522;28;3373;-64
2023/01/13 15:39:02;;;;;;;;;;;;;;;;;;4999276;28;4712;-63
2023/01/13 15:46:56;;;;;;;;;;;;;;;;;;5001679;28;5219;-63
2023/01/13 15:49:21;;;;;;;;;;;;;;;;;;5002757;28;5200;-65
2023/01/13 15:51:47;;;;;;;;;;;;;;;;;;5006597;28;3428;-65
2023/01/13 15:54:12;;;;;;;;;;;;;;;;;;5004268;28;5273;-66
2023/01/13 15:56:38;;;;;;;;;;;;;;;;;;5007677;28;5019;-63
2023/01/13 15:59:03;;;;;;;;;;;;;;;;;;5020672;28;5063;-65
2023/01/13 16:01:29;;;;;;;;;;;;;;;;;;5003245;28;5576;-61
2023/01/13 16:03:54;;;;;;;;;;;;;;;;;;4994524;28;4703;-62
2023/01/13 16:06:20;;;;;;;;;;;;;;;;;;5001558;28;3379;-69
2023/01/13 16:08:45;;;;;;;;;;;;;;;;;;5000292;28;5020;-65
2023/01/13 16:11:10;;;;;;;;;;;;;;;;;;4994904;28;5120;-64
2023/01/13 16:13:36;;;;;;;;;;;;;;;;;;4996072;28;4749;-65
2023/01/13 16:16:01;;;;;;;;;;;;;;;;;;5017770;28;5169;-63
2023/01/13 16:18:26;;;;;;;;;;;;;;;;;;5007121;28;3112;-63
2023/01/13 16:20:53;;;;;;;;;;;;;;;;;;5002092;28;5206;-64
2023/01/13 16:23:19;;;;;;;;;;;;;;;;;;4994209;28;5161;-63
2023/01/13 16:25:45;;;;;;;;;;;;;;;;;;5005216;28;5131;-63
2023/01/13 16:28:17;;;;;;;;;;;;;;;;;;5003780;28;5202;-65
2023/01/13 16:30:42;;;;;;;;;;;;;;;;;;5007708;28;4351;-64
2023/01/13 16:33:07;;;;;;;;;;;;;;;;;;5005034;28;4945;-65
2023/01/13 16:35:34;;;;;;;;;;;;;;;;;;5007822;28;4932;-65
2023/01/13 16:37:59;;;;;;;;;;;;;;;;;;5007228;28;4866;-66
2023/01/13 16:40:32;;;;;;;;;;;;;;;;;;5004649;28;5020;-64
2023/01/13 16:42:59;;;;;;;;;;;;;;;;;;5006504;28;5172;-64
2023/01/13 16:45:25;;;;;;;;;;;;;;;;;;5002536;28;3034;-64
2023/01/13 16:47:50;;;;;;;;;;;;;;;;;;5001816;28;4991;-64
2023/01/13 16:50:27;;;;;;;;;;;;;;;;;;5004152;28;5095;-64
2023/01/13 16:52:52;;;;;;;;;;;;;;;;;;5006128;28;5131;-63
2023/01/13 16:55:17;;;;;;;;;;;;;;;;;;5004938;28;4451;-64
2023/01/13 16:57:43;;;;;;;;;;;;;;;;;;5006651;28;1155;-64
2023/01/13 17:00:09;;;;;;;;;;;;;;;;;;4984383;28;4417;-64
2023/01/13 17:02:34;;;;;;;;;;;;;;;;;;4984556;28;5058;-65
2023/01/13 17:04:59;;;;;;;;;;;;;;;;;;4987527;28;4673;-65
2023/01/13 17:07:25;;;;;;;;;;;;;;;;;;4976494;28;5255;-64
2023/01/13 17:09:50;;;;;;;;;;;;;;;;;;4987433;28;1277;-64
2023/01/13 17:12:15;;;;;;;;;;;;;;;;;;4985471;28;4958;-62
2023/01/13 17:14:42;;;;;;;;;;;;;;;;;;4982582;28;4509;-64
2023/01/13 17:17:07;;;;;;;;;;;;;;;;;;4987661;28;5075;-65
2023/01/13 17:19:32;;;;;;;;;;;;;;;;;;4986541;28;5070;-60
2023/01/13 17:21:58;;;;;;;;;;;;;;;;;;4987588;28;5160;-63
2023/01/13 17:24:24;;;;;;;;;;;;;;;;;;4986745;28;1198;-64
2023/01/13 17:26:50;;;;;;;;;;;;;;;;;;5019232;28;5077;-65
2023/01/13 17:29:16;;;;;;;;;;;;;;;;;;5007618;28;4963;-65
2023/01/13 17:31:41;;;;;;;;;;;;;;;;;;5001456;28;5201;-64
2023/01/13 17:34:07;;;;;;;;;;;;;;;;;;4986182;28;4688;-64
2023/01/13 17:36:32;;;;;;;;;;;;;;;;;;4979841;28;3311;-64
2023/01/13 17:38:57;;;;;;;;;;;;;;;;;;4987778;28;4404;-64
2023/01/13 17:41:23;;;;;;;;;;;;;;;;;;4987450;28;4665;-63
2023/01/13 17:43:48;;;;;;;;;;;;;;;;;;4986417;28;5255;-63
2023/01/13 17:46:17;;;;;;;;;;;;;;;;;;4990228;28;5257;-64
2023/01/13 17:48:42;;;;;;;;;;;;;;;;;;5008487;28;1205;-65
2023/01/13 17:51:07;;;;;;;;;;;;;;;;;;4986052;28;4976;-65
2023/01/13 17:53:33;;;;;;;;;;;;;;;;;;4986429;28;5237;-66
2023/01/13 17:55:58;;;;;;;;;;;;;;;;;;4997004;28;5001;-63
2023/01/13 17:58:23;;;;;;;;;;;;;;;;;;5007005;28;5113;-60
2023/01/13 18:00:48;;;;;;;;;;;;;;;;;;5004371;28;3274;-63
2023/01/13 18:03:14;;;;;;;;;;;;;;;;;;5008343;28;4381;-64
2023/01/13 18:05:39;;;;;;;;;;;;;;;;;;5009882;28;4873;-65
2023/01/13 18:08:05;;;;;;;;;;;;;;;;;;5011573;28;4798;-64
2023/01/13 18:10:31;;;;;;;;;;;;;;;;;;5011710;28;4891;-65
2023/01/13 18:12:56;;;;;;;;;;;;;;;;;;5010963;28;5138;-64